Time;durP1;ratioP1;P1;durP2;ratioP2;P2;SDS_P1;SDS_P2;PMS_P1;PMS_P2;Temp;Humidity;BMP_temperature;BMP_pressure;BME280_temperature;BME280_humidity;BME280_pressure;Samples;Min_cycle;Max_cycle;Signal;HPM_P1;HPM_P2
2024/04/01 00:00:25;;;;;;;;;;;;;;;7.42;100.00;98965.06;5092710;28;20019;-74
2024/04/01 00:02:51;;;;;;;;;;;;;;;7.40;100.00;98958.31;5092522;28;20007;-75
2024/04/01 00:05:16;;;;;;;;;;;;;;;7.34;100.00;98961.88;5093106;28;19942;-75
2024/04/01 00:07:45;;;;;;;;;;;;;;;7.30;100.00;98958.81;5092716;28;19920;-75
2024/04/01 00:10:10;;;;;;;;;;;;;;;7.29;100.00;98967.91;5092401;28;19924;-75
2024/04/01 00:12:35;;;;;;;;;;;;;;;7.30;100.00;98969.53;5092917;28;19927;-75
2024/04/01 00:15:01;;;;;;;;;;;;;;;7.39;100.00;98964.69;5092610;28;19924;-74
2024/04/01 00:17:26;;;;;;;;;;;;;;;7.40;100.00;98967.19;5091638;28;19942;-74
2024/04/01 00:19:51;;;;;;;;;;;;;;;7.40;100.00;98969.03;5092095;28;19920;-74
2024/04/01 00:22:16;;;;;;;;;;;;;;;7.40;100.00;98969.84;5092424;28;19931;-74
2024/04/01 00:24:42;;;;;;;;;;;;;;;7.37;100.00;98969.47;5091920;28;19927;-74
2024/04/01 00:27:07;;;;;;;;;;;;;;;7.39;100.00;98967.38;5092999;28;19920;-74
2024/04/01 00:29:32;;;;;;;;;;;;;;;7.47;100.00;98967.09;5092066;28;19932;-75
2024/04/01 00:31:57;;;;;;;;;;;;;;;7.43;100.00;98958.66;5091148;28;19920;-74
2024/04/01 00:34:23;;;;;;;;;;;;;;;7.31;100.00;98952.44;5092631;28;19924;-74
2024/04/01 00:36:48;;;;;;;;;;;;;;;7.35;100.00;98942.09;5091215;28;19961;-74
2024/04/01 00:39:13;;;;;;;;;;;;;;;7.39;100.00;98933.41;5091140;28;19920;-74
2024/04/01 00:41:38;;;;;;;;;;;;;;;7.33;100.00;98920.91;5092897;28;19920;-74
2024/04/01 00:44:03;;;;;;;;;;;;;;;7.27;100.00;98916.44;5092235;28;19920;-74
2024/04/01 00:46:29;;;;;;;;;;;;;;;7.17;100.00;98900.09;5091434;28;20291;-74
2024/04/01 00:48:54;;;;;;;;;;;;;;;7.12;100.00;98904.25;5090735;28;20301;-74
2024/04/01 00:51:19;;;;;;;;;;;;;;;7.05;100.00;98906.19;5073975;28;20424;-74
2024/04/01 00:53:44;;;;;;;;;;;;;;;7.00;100.00;98905.22;5072982;28;20362;-73
2024/04/01 00:56:10;;;;;;;;;;;;;;;7.01;100.00;98899.66;5092554;28;20398;-73
2024/04/01 00:58:35;;;;;;;;;;;;;;;6.96;100.00;98899.50;5092642;28;19920;-75
2024/04/01 01:01:00;;;;;;;;;;;;;;;6.93;100.00;98894.56;5090810;28;19927;-73
2024/04/01 01:03:25;;;;;;;;;;;;;;;6.94;100.00;98886.34;5072787;28;19928;-75
2024/04/01 01:05:50;;;;;;;;;;;;;;;6.92;100.00;98899.13;5092312;28;19927;-74
2024/04/01 01:08:16;;;;;;;;;;;;;;;6.91;100.00;98899.31;5073173;28;19920;-75
2024/04/01 01:10:41;;;;;;;;;;;;;;;6.92;100.00;98890.25;5091684;28;19927;-74
2024/04/01 01:13:07;;;;;;;;;;;;;;;7.01;100.00;98885.44;5092489;28;19920;-74
2024/04/01 01:15:32;;;;;;;;;;;;;;;7.06;100.00;98878.38;5090256;28;19928;-75
2024/04/01 01:17:57;;;;;;;;;;;;;;;7.05;100.00;98868.75;5091480;28;20371;-74
2024/04/01 01:20:22;;;;;;;;;;;;;;;7.07;100.00;98876.53;5091054;28;20397;-74
2024/04/01 01:22:48;;;;;;;;;;;;;;;7.07;100.00;98890.72;5090667;28;20339;-74
2024/04/01 01:25:13;;;;;;;;;;;;;;;7.08;100.00;98895.03;5091472;28;20330;-74
2024/04/01 01:27:42;;;;;;;;;;;;;;;7.13;100.00;98894.38;5092594;28;19920;-74
2024/04/01 01:30:16;;;;;;;;;;;;;;;7.12;100.00;98885.53;5090708;28;19920;-73
2024/04/01 01:32:59;;;;;;;;;;;;;;;7.13;100.00;98889.84;5084840;28;19924;-72
2024/04/01 01:35:26;;;;;;;;;;;;;;;7.15;100.00;98891.47;5073701;28;19924;-74
2024/04/01 01:37:58;;;;;;;;;;;;;;;7.24;100.00;98903.50;5091705;28;19948;-74
2024/04/01 01:40:23;;;;;;;;;;;;;;;7.22;100.00;98898.38;5091018;28;19920;-74
2024/04/01 01:42:49;;;;;;;;;;;;;;;7.21;100.00;98896.75;5090997;28;20140;-72
2024/04/01 01:45:14;;;;;;;;;;;;;;;7.15;100.00;98896.81;5091359;28;19920;-73
2024/04/01 01:47:39;;;;;;;;;;;;;;;7.12;100.00;98892.75;5090567;28;19928;-73
2024/04/01 01:50:05;;;;;;;;;;;;;;;7.08;100.00;98888.88;5091782;28;19943;-73
2024/04/01 01:52:31;;;;;;;;;;;;;;;7.11;100.00;98896.47;5093203;28;19953;-73
2024/04/01 01:54:56;;;;;;;;;;;;;;;7.11;100.00;98902.63;5090174;28;20341;-73
2024/04/01 01:57:21;;;;;;;;;;;;;;;7.28;100.00;98912.72;5090865;28;19928;-73
2024/04/01 01:59:46;;;;;;;;;;;;;;;7.35;100.00;98916.16;5091081;28;19923;-74
2024/04/01 02:02:12;;;;;;;;;;;;;;;7.41;100.00;98914.44;5090461;28;20329;-73
2024/04/01 02:04:37;;;;;;;;;;;;;;;7.36;100.00;98904.41;5091388;28;19920;-73
2024/04/01 02:07:03;;;;;;;;;;;;;;;7.38;100.00;98896.16;5090743;28;19924;-73
2024/04/01 02:09:29;;;;;;;;;;;;;;;7.36;100.00;98898.22;5091235;28;19959;-74
2024/04/01 02:11:54;;;;;;;;;;;;;;;7.30;100.00;98905.28;5091032;28;19920;-74
2024/04/01 02:14:19;;;;;;;;;;;;;;;7.21;100.00;98906.66;5091147;28;19927;-74
2024/04/01 02:16:44;;;;;;;;;;;;;;;7.18;100.00;98901.75;5090194;28;20412;-74
2024/04/01 02:19:09;;;;;;;;;;;;;;;7.19;100.00;98898.81;5091650;28;19927;-74
2024/04/01 02:21:35;;;;;;;;;;;;;;;7.13;100.00;98897.88;5090494;28;19970;-74
2024/04/01 02:24:00;;;;;;;;;;;;;;;7.25;100.00;98897.09;5089633;28;19920;-74
2024/04/01 02:26:25;;;;;;;;;;;;;;;7.33;100.00;98887.97;5091598;28;19942;-74
2024/04/01 02:28:50;;;;;;;;;;;;;;;7.34;100.00;98890.44;5091266;28;20297;-74
2024/04/01 02:31:17;;;;;;;;;;;;;;;7.22;100.00;98885.00;5090418;28;20350;-74
2024/04/01 02:33:42;;;;;;;;;;;;;;;7.11;100.00;98880.41;5091567;28;20379;-75
2024/04/01 02:36:08;;;;;;;;;;;;;;;7.01;100.00;98880.94;5091385;28;19971;-73
2024/04/01 02:38:33;;;;;;;;;;;;;;;6.97;100.00;98885.06;5090494;28;20414;-73
2024/04/01 02:40:58;;;;;;;;;;;;;;;6.93;100.00;98878.53;5092015;28;20298;-73
2024/04/01 02:43:23;;;;;;;;;;;;;;;6.94;100.00;98862.28;5109016;28;19912;-74
2024/04/01 02:45:52;;;;;;;;;;;;;;;6.89;100.00;98864.78;5108161;28;19983;-74
2024/04/01 02:48:17;;;;;;;;;;;;;;;6.91;100.00;98861.88;5111762;28;19930;-74
2024/04/01 02:50:43;;;;;;;;;;;;;;;6.89;100.00;98862.13;5112055;28;19928;-74
2024/04/01 02:53:09;;;;;;;;;;;;;;;6.86;100.00;98853.72;5100940;28;19982;-73
2024/04/01 02:55:34;;;;;;;;;;;;;;;6.83;100.00;98850.44;5094808;28;19920;-74
2024/04/01 02:57:59;;;;;;;;;;;;;;;6.83;100.00;98863.81;5093052;28;19935;-73
2024/04/01 03:00:25;;;;;;;;;;;;;;;6.82;100.00;98867.53;5092681;28;20010;-73
2024/04/01 03:02:50;;;;;;;;;;;;;;;6.83;100.00;98866.50;5094875;28;20026;-73
2024/04/01 03:05:16;;;;;;;;;;;;;;;6.83;100.00;98874.53;5095087;28;19935;-74
2024/04/01 03:07:41;;;;;;;;;;;;;;;6.83;100.00;98879.88;5094388;28;19920;-73
2024/04/01 03:10:13;;;;;;;;;;;;;;;6.81;100.00;98881.94;5094748;28;19920;-74
2024/04/01 03:12:39;;;;;;;;;;;;;;;6.92;100.00;98879.56;5094785;28;19924;-73
2024/04/01 03:15:08;;;;;;;;;;;;;;;7.03;100.00;98878.00;5092875;28;19927;-73
2024/04/01 03:17:33;;;;;;;;;;;;;;;7.17;100.00;98874.16;5094844;28;19917;-74
2024/04/01 03:20:00;;;;;;;;;;;;;;;7.19;100.00;98874.75;5093974;28;19920;-73
2024/04/01 03:22:25;;;;;;;;;;;;;;;7.22;100.00;98868.16;5093736;28;19927;-72
2024/04/01 03:24:50;;;;;;;;;;;;;;;7.12;100.00;98868.66;5093626;28;19920;-72
2024/04/01 03:27:16;;;;;;;;;;;;;;;7.02;100.00;98861.16;5093454;28;19920;-73
2024/04/01 03:29:44;;;;;;;;;;;;;;;6.93;100.00;98863.31;5092761;28;19973;-73
2024/04/01 03:32:09;;;;;;;;;;;;;;;6.86;100.00;98859.06;5093925;28;19920;-72
2024/04/01 03:34:34;;;;;;;;;;;;;;;6.80;100.00;98858.91;5093570;28;19916;-73
2024/04/01 03:37:01;;;;;;;;;;;;;;;6.77;100.00;98859.34;5093301;28;19924;-74
2024/04/01 03:39:27;;;;;;;;;;;;;;;6.83;100.00;98858.47;5092484;28;20380;-74
2024/04/01 03:41:52;;;;;;;;;;;;;;;6.87;100.00;98855.38;5093947;28;19920;-74
2024/04/01 03:44:17;;;;;;;;;;;;;;;6.93;100.00;98857.13;5093509;28;20583;-74
2024/04/01 03:46:43;;;;;;;;;;;;;;;7.01;100.00;98864.88;5092990;28;20431;-72
2024/04/01 03:49:08;;;;;;;;;;;;;;;7.19;100.00;98865.91;5093854;28;20393;-72
2024/04/01 03:51:33;;;;;;;;;;;;;;;7.26;100.00;98867.47;5092488;28;19989;-72
2024/04/01 03:53:59;;;;;;;;;;;;;;;7.36;100.00;98861.59;5093399;28;19973;-72
2024/04/01 03:56:24;;;;;;;;;;;;;;;7.40;100.00;98857.41;5093215;28;19920;-72
2024/04/01 03:58:49;;;;;;;;;;;;;;;7.47;100.00;98853.81;5092853;28;19920;-72
2024/04/01 04:01:16;;;;;;;;;;;;;;;7.45;100.00;98851.38;5092867;28;20010;-74
2024/04/01 04:03:42;;;;;;;;;;;;;;;7.50;100.00;98845.34;5093206;28;20011;-74
2024/04/01 04:06:11;;;;;;;;;;;;;;;7.38;100.00;98838.09;5092874;28;19924;-72
2024/04/01 04:08:36;;;;;;;;;;;;;;;7.41;100.00;98832.25;5092757;28;19920;-73
2024/04/01 04:11:06;;;;;;;;;;;;;;;7.43;100.00;98830.19;5092602;28;19920;-73
2024/04/01 04:13:32;;;;;;;;;;;;;;;7.50;100.00;98837.31;5092837;28;19943;-73
2024/04/01 04:15:58;;;;;;;;;;;;;;;7.56;100.00;98834.53;5093202;28;20364;-73
2024/04/01 04:18:23;;;;;;;;;;;;;;;7.56;100.00;98845.25;5092445;28;20359;-73
2024/04/01 04:20:54;;;;;;;;;;;;;;;7.59;100.00;98844.81;5092149;28;19927;-73
2024/04/01 04:23:20;;;;;;;;;;;;;;;7.52;100.00;98848.63;5092760;28;19924;-73
2024/04/01 04:25:45;;;;;;;;;;;;;;;7.38;100.00;98854.16;5092701;28;19927;-72
2024/04/01 04:28:10;;;;;;;;;;;;;;;7.29;100.00;98858.16;5092269;28;19977;-73
2024/04/01 04:30:35;;;;;;;;;;;;;;;7.19;100.00;98861.38;5091870;28;19920;-73
2024/04/01 04:33:01;;;;;;;;;;;;;;;7.14;100.00;98863.91;5092829;28;19950;-74
2024/04/01 04:35:26;;;;;;;;;;;;;;;7.07;100.00;98861.28;5093045;28;19970;-73
2024/04/01 04:37:51;;;;;;;;;;;;;;;7.01;100.00;98866.72;5091392;28;19965;-73
2024/04/01 04:40:16;;;;;;;;;;;;;;;6.99;100.00;98877.66;5092420;28;19927;-73
2024/04/01 04:42:41;;;;;;;;;;;;;;;6.96;100.00;98883.44;5092833;28;19920;-73
2024/04/01 04:45:07;;;;;;;;;;;;;;;6.89;100.00;98885.34;5091600;28;19920;-73
2024/04/01 04:47:32;;;;;;;;;;;;;;;6.82;100.00;98886.25;5092498;28;19927;-73
2024/04/01 04:49:57;;;;;;;;;;;;;;;6.79;100.00;98889.38;5092546;28;19916;-73
2024/04/01 04:52:23;;;;;;;;;;;;;;;6.76;100.00;98886.31;5091562;28;20380;-75
2024/04/01 04:54:48;;;;;;;;;;;;;;;6.75;100.00;98884.69;5091559;28;19921;-75
2024/04/01 04:57:13;;;;;;;;;;;;;;;6.72;100.00;98888.59;5092515;28;19977;-75
2024/04/01 04:59:38;;;;;;;;;;;;;;;6.72;100.00;98883.25;5091102;28;19916;-75
2024/04/01 05:02:06;;;;;;;;;;;;;;;6.68;100.00;98882.09;5091732;28;19927;-75
2024/04/01 05:04:34;;;;;;;;;;;;;;;6.67;100.00;98885.78;5092008;28;20295;-75
2024/04/01 05:07:02;;;;;;;;;;;;;;;6.66;100.00;98882.28;5090972;28;19947;-75
2024/04/01 05:09:27;;;;;;;;;;;;;;;6.67;100.00;98886.59;5092302;28;19930;-74
2024/04/01 05:11:54;;;;;;;;;;;;;;;6.66;100.00;98886.81;5091820;28;20014;-75
2024/04/01 05:14:21;;;;;;;;;;;;;;;6.65;100.00;98890.53;5090877;28;19920;-74
2024/04/01 05:16:46;;;;;;;;;;;;;;;6.65;100.00;98890.53;5092230;28;19927;-75
2024/04/01 05:19:12;;;;;;;;;;;;;;;6.66;100.00;98897.53;5095803;28;19924;-75
2024/04/01 05:21:37;;;;;;;;;;;;;;;6.68;100.00;98882.09;5090884;28;20019;-75
2024/04/01 05:24:03;;;;;;;;;;;;;;;6.68;100.00;98888.22;5090679;28;19927;-76
2024/04/01 05:26:29;;;;;;;;;;;;;;;6.71;100.00;98881.63;5092193;28;19920;-75
2024/04/01 05:28:54;;;;;;;;;;;;;;;6.72;100.00;98888.59;5090884;28;19927;-75
2024/04/01 05:31:19;;;;;;;;;;;;;;;6.74;100.00;98891.88;5091253;28;19924;-75
2024/04/01 05:33:44;;;;;;;;;;;;;;;6.74;100.00;98889.19;5091501;28;19916;-76
2024/04/01 05:36:10;;;;;;;;;;;;;;;6.76;100.00;98889.00;5090344;28;19924;-75
2024/04/01 05:38:39;;;;;;;;;;;;;;;6.76;100.00;98889.81;5090938;28;19924;-76
2024/04/01 05:41:05;;;;;;;;;;;;;;;6.77;100.00;98885.28;5091068;28;20402;-76
2024/04/01 05:43:30;;;;;;;;;;;;;;;6.77;100.00;98885.28;5091355;28;19917;-76
2024/04/01 05:45:55;;;;;;;;;;;;;;;6.79;100.00;98883.22;5090995;28;19941;-75
2024/04/01 05:48:20;;;;;;;;;;;;;;;6.82;100.00;98894.28;5091596;28;20002;-75
2024/04/01 05:50:47;;;;;;;;;;;;;;;6.85;100.00;98886.84;5090545;28;20375;-75
2024/04/01 05:53:13;;;;;;;;;;;;;;;6.88;100.00;98892.56;5089953;28;19950;-75
2024/04/01 05:55:41;;;;;;;;;;;;;;;6.92;100.00;98887.59;5091440;28;19935;-75
2024/04/01 05:58:15;;;;;;;;;;;;;;;6.96;100.00;98891.47;5090073;28;20452;-74
2024/04/01 06:00:40;;;;;;;;;;;;;;;6.99;100.00;98885.69;5090861;28;19927;-74
2024/04/01 06:03:05;;;;;;;;;;;;;;;7.04;100.00;98895.69;5091383;28;19920;-76
2024/04/01 06:05:33;;;;;;;;;;;;;;;7.06;100.00;98894.44;5090985;28;20002;-74
2024/04/01 06:07:59;;;;;;;;;;;;;;;7.16;100.00;98893.13;5090719;28;20088;-74
2024/04/01 06:10:24;;;;;;;;;;;;;;;7.18;100.00;98896.38;5092047;28;20042;-74
2024/04/01 06:12:52;;;;;;;;;;;;;;;7.19;100.00;98911.41;5090865;28;20062;-73
2024/04/01 06:15:17;;;;;;;;;;;;;;;7.20;100.00;98903.13;5090907;28;19920;-74
2024/04/01 06:17:43;;;;;;;;;;;;;;;7.24;100.00;98900.81;5091853;28;19916;-74
2024/04/01 06:20:10;;;;;;;;;;;;;;;7.28;100.00;98902.84;5091516;28;19916;-74
2024/04/01 06:22:35;;;;;;;;;;;;;;;7.30;100.00;98902.63;5090427;28;19977;-74
2024/04/01 06:25:00;;;;;;;;;;;;;;;7.32;100.00;98897.06;5090851;28;19924;-75
2024/04/01 06:27:25;;;;;;;;;;;;;;;7.31;100.00;98896.22;5090950;28;19927;-76
2024/04/01 06:29:51;;;;;;;;;;;;;;;7.31;100.00;98895.44;5090823;28;19924;-75
2024/04/01 06:32:16;;;;;;;;;;;;;;;7.32;100.00;98900.53;5090303;28;19932;-74
2024/04/01 06:34:44;;;;;;;;;;;;;;;7.35;100.00;98897.41;5092198;28;19920;-75
2024/04/01 06:37:09;;;;;;;;;;;;;;;7.37;100.00;98895.34;5093827;28;19951;-75
2024/04/01 06:39:34;;;;;;;;;;;;;;;7.39;100.00;98895.94;5091761;28;19963;-76
2024/04/01 06:41:59;;;;;;;;;;;;;;;7.42;100.00;98903.50;5093877;28;19928;-75
2024/04/01 06:44:25;;;;;;;;;;;;;;;7.44;100.00;98904.09;5093197;28;19920;-75
2024/04/01 06:46:50;;;;;;;;;;;;;;;7.63;100.00;98909.44;5093487;28;19931;-74
2024/04/01 06:49:15;;;;;;;;;;;;;;;7.70;100.00;98912.84;5093094;28;20410;-76
2024/04/01 06:51:43;;;;;;;;;;;;;;;7.80;100.00;98906.13;5091520;28;19920;-74
2024/04/01 06:54:09;;;;;;;;;;;;;;;7.91;100.00;98915.25;5092570;28;19943;-75
2024/04/01 06:56:34;;;;;;;;;;;;;;;7.95;100.00;98917.25;5097517;28;20374;-74
2024/04/01 06:59:00;;;;;;;;;;;;;;;7.91;100.00;98913.41;5091713;28;20357;-75
2024/04/01 07:01:25;;;;;;;;;;;;;;;7.94;100.00;98915.63;5093752;28;19973;-75
2024/04/01 07:03:53;;;;;;;;;;;;;;;7.93;100.00;98919.34;5093667;28;19924;-76
2024/04/01 07:06:19;;;;;;;;;;;;;;;7.98;100.00;98916.78;5092424;28;19916;-75
2024/04/01 07:08:44;;;;;;;;;;;;;;;8.02;100.00;98926.00;5092875;28;19927;-75
2024/04/01 07:11:09;;;;;;;;;;;;;;;8.15;100.00;98921.50;5093495;28;20399;-75
2024/04/01 07:13:34;;;;;;;;;;;;;;;8.22;100.00;98927.59;5092211;28;20429;-74
2024/04/01 07:16:00;;;;;;;;;;;;;;;8.23;100.00;98934.59;5092332;28;19920;-75
2024/04/01 07:18:25;;;;;;;;;;;;;;;8.25;100.00;98943.22;5093001;28;20583;-75
2024/04/01 07:20:50;;;;;;;;;;;;;;;8.24;100.00;98944.25;5092346;28;20327;-75
2024/04/01 07:23:16;;;;;;;;;;;;;;;8.35;100.00;98946.16;5092185;28;19951;-74
2024/04/01 07:25:41;;;;;;;;;;;;;;;8.38;100.00;98941.38;5092911;28;19920;-74
2024/04/01 07:28:07;;;;;;;;;;;;;;;8.39;100.00;98954.53;5091923;28;19920;-74
2024/04/01 07:30:32;;;;;;;;;;;;;;;8.36;100.00;98960.38;5092208;28;19959;-74
2024/04/01 07:33:00;;;;;;;;;;;;;;;8.40;100.00;98963.41;5091457;28;20375;-74
2024/04/01 07:35:26;;;;;;;;;;;;;;;8.41;100.00;98957.00;5091753;28;19916;-73
2024/04/01 07:37:51;;;;;;;;;;;;;;;8.43;100.00;98962.97;5083574;28;19977;-73
2024/04/01 07:40:16;;;;;;;;;;;;;;;8.47;100.00;98972.19;5091922;28;20006;-74
2024/04/01 07:42:43;;;;;;;;;;;;;;;8.48;100.00;98969.31;5091998;28;20014;-75
2024/04/01 07:45:09;;;;;;;;;;;;;;;8.52;100.00;98968.84;5091398;28;19920;-74
2024/04/01 07:47:40;;;;;;;;;;;;;;;8.47;100.00;98970.31;5092976;28;19920;-74
2024/04/01 07:50:06;;;;;;;;;;;;;;;8.50;100.00;98971.75;5090068;28;19927;-74
2024/04/01 07:52:31;;;;;;;;;;;;;;;8.54;100.00;98980.97;5090734;28;19924;-74
2024/04/01 07:54:57;;;;;;;;;;;;;;;8.55;100.00;98973.75;5092237;28;19928;-74
2024/04/01 07:57:28;;;;;;;;;;;;;;;8.54;100.00;98980.16;5091587;28;19927;-74
2024/04/01 07:59:53;;;;;;;;;;;;;;;8.52;100.00;98985.75;5090913;28;19916;-74
2024/04/01 08:02:22;;;;;;;;;;;;;;;8.48;100.00;98984.56;5091336;28;20299;-74
2024/04/01 08:04:47;;;;;;;;;;;;;;;8.50;100.00;98987.81;5091645;28;19920;-73
2024/04/01 08:07:14;;;;;;;;;;;;;;;8.43;100.00;98987.09;5091755;28;20259;-75
2024/04/01 08:09:39;;;;;;;;;;;;;;;8.43;100.00;98992.47;5092221;28;19993;-75
2024/04/01 08:12:04;;;;;;;;;;;;;;;8.42;100.00;98998.88;5091234;28;19924;-74
2024/04/01 08:14:30;;;;;;;;;;;;;;;8.40;100.00;98995.59;5090807;28;20078;-74
2024/04/01 08:16:58;;;;;;;;;;;;;;;8.38;100.00;98995.00;5091704;28;19916;-75
2024/04/01 08:19:25;;;;;;;;;;;;;;;8.39;100.00;99004.69;5091094;28;20295;-75
2024/04/01 08:21:51;;;;;;;;;;;;;;;8.46;100.00;99002.75;5090955;28;19935;-74
2024/04/01 08:24:16;;;;;;;;;;;;;;;8.35;100.00;99005.13;5091341;28;19923;-74
2024/04/01 08:26:41;;;;;;;;;;;;;;;8.40;100.00;99007.13;5091026;28;19920;-75
2024/04/01 08:29:06;;;;;;;;;;;;;;;8.44;100.00;99008.31;5090478;28;19968;-74
2024/04/01 08:31:38;;;;;;;;;;;;;;;8.55;100.00;99011.31;5089426;28;19920;-75
2024/04/01 08:34:03;;;;;;;;;;;;;;;8.60;100.00;99014.09;5090496;28;19920;-75
2024/04/01 08:36:28;;;;;;;;;;;;;;;8.71;100.00;99015.16;5091738;28;20275;-75
2024/04/01 08:38:53;;;;;;;;;;;;;;;8.67;100.00;99019.34;5090979;28;20411;-75
2024/04/01 08:41:21;;;;;;;;;;;;;;;8.55;100.00;99024.72;5090694;28;19970;-76
2024/04/01 08:43:47;;;;;;;;;;;;;;;8.65;100.00;99036.50;5090574;28;19920;-75
2024/04/01 08:46:12;;;;;;;;;;;;;;;8.55;100.00;99030.88;5091771;28;19916;-75
2024/04/01 08:48:37;;;;;;;;;;;;;;;8.84;100.00;99036.41;5090604;28;20282;-75
2024/04/01 08:51:03;;;;;;;;;;;;;;;8.76;100.00;99031.41;5072674;28;19920;-76
2024/04/01 08:53:43;;;;;;;;;;;;;;;8.85;100.00;99032.69;5091289;28;19923;-75
2024/04/01 08:56:11;;;;;;;;;;;;;;;9.05;100.00;99048.50;5072706;28;19924;-73
2024/04/01 08:58:37;;;;;;;;;;;;;;;9.05;100.00;99059.22;5088417;28;20450;-74
2024/04/01 09:01:03;;;;;;;;;;;;;;;8.89;100.00;99054.53;5073200;28;19920;-74
2024/04/01 09:03:28;;;;;;;;;;;;;;;8.77;100.00;99049.13;5073345;28;19920;-74
2024/04/01 09:05:56;;;;;;;;;;;;;;;8.70;100.00;99035.81;5070407;28;19917;-74
2024/04/01 09:08:22;;;;;;;;;;;;;;;8.65;100.00;99054.47;5092274;28;20306;-75
2024/04/01 09:10:47;;;;;;;;;;;;;;;8.82;100.00;99065.38;5073698;28;19920;-74
2024/04/01 09:13:13;;;;;;;;;;;;;;;9.16;100.00;99072.88;5090358;28;20382;-74
2024/04/01 09:15:39;;;;;;;;;;;;;;;8.96;100.00;99065.97;5071941;28;20433;-75
2024/04/01 09:18:04;;;;;;;;;;;;;;;8.88;100.00;99064.44;5091150;28;20236;-75
2024/04/01 09:20:30;;;;;;;;;;;;;;;8.85;100.00;99066.78;5071211;28;19965;-75
2024/04/01 09:22:55;;;;;;;;;;;;;;;9.18;100.00;99062.75;5072521;28;19986;-74
2024/04/01 09:25:20;;;;;;;;;;;;;;;9.11;100.00;99068.22;5091155;28;20014;-75
2024/04/01 09:27:45;;;;;;;;;;;;;;;9.08;100.00;99066.00;5087145;28;20080;-75
2024/04/01 09:30:11;;;;;;;;;;;;;;;9.05;100.00;99055.72;5089636;28;20014;-75
2024/04/01 09:33:05;;;;;;;7.50;6.70;;;;;;;9.28;100.00;99062.16;5053527;27;1241243;-74
2024/04/01 09:35:30;;;;;;;8.65;7.75;;;;;;;8.97;100.00;99069.47;5087236;28;20036;-75
2024/04/01 09:37:56;;;;;;;9.18;8.20;;;;;;;8.75;100.00;99072.69;5069041;28;20020;-74
2024/04/01 09:40:27;;;;;;;12.82;10.20;;;;;;;8.55;100.00;99075.66;5068862;28;20492;-74
2024/04/01 09:42:58;;;;;;;10.88;9.45;;;;;;;8.62;100.00;99079.91;5070192;28;20025;-74
2024/04/01 09:45:24;;;;;;;14.25;11.40;;;;;;;8.58;100.00;99080.56;5087217;28;20032;-74
2024/04/01 09:47:49;;;;;;;11.85;10.65;;;;;;;8.47;100.00;99074.91;5085709;28;20023;-75
2024/04/01 09:50:15;;;;;;;13.02;11.63;;;;;;;8.40;100.00;99066.13;5051240;28;20032;-75
2024/04/01 09:52:40;;;;;;;13.90;12.10;;;;;;;8.37;100.00;99068.44;5051519;28;20024;-75
2024/04/01 09:55:07;;;;;;;13.00;11.45;;;;;;;8.46;100.00;99064.41;5067855;28;20029;-75
2024/04/01 09:57:51;;;;;;;12.77;10.95;;;;;;;8.56;100.00;99066.59;5086695;28;20091;-75
2024/04/01 10:00:17;;;;;;;12.63;11.32;;;;;;;8.52;100.00;99068.88;5085654;28;20074;-74
2024/04/01 10:03:05;;;;;;;14.75;12.35;;;;;;;8.49;100.00;99062.13;5086375;28;20024;-74
2024/04/01 10:06:04;;;;;;;13.57;12.02;;;;;;;8.43;100.00;99078.28;5069725;28;20032;-74
2024/04/01 10:08:41;;;;;;;12.50;10.27;;;;;;;8.45;100.00;99076.19;5069833;28;20024;-74
2024/04/01 10:11:25;;;;;;;12.63;10.73;;;;;;;8.38;100.00;99086.16;5083650;28;20036;-74
2024/04/01 10:14:08;;;;;;;15.20;11.40;;;;;;;8.37;100.00;99087.22;5081561;28;20031;-74
2024/04/01 10:16:57;;;;;;;12.88;11.35;;;;;;;8.37;100.00;99089.88;5076959;28;20025;-74
2024/04/01 10:19:47;;;;;;;14.48;12.05;;;;;;;8.45;100.00;99093.06;5069413;28;20031;-74
2024/04/01 10:22:50;;;;;;;14.00;12.48;;;;;;;8.40;100.00;99089.44;5109127;28;20020;-75
2024/04/01 10:25:52;;;;;;;14.23;12.52;;;;;;;8.51;100.00;99083.31;5110099;28;20119;-75
2024/04/01 10:28:55;;;;;;;13.13;11.70;;;;;;;8.62;100.00;99087.09;5099565;28;20078;-75
2024/04/01 10:31:23;;;;;;;13.63;11.73;;;;;;;8.69;100.00;99092.38;5096367;28;20460;-74
2024/04/01 10:34:37;;;;;;;13.43;12.00;;;;;;;8.90;100.00;99099.91;5066169;28;20040;-74
2024/04/01 10:37:14;;;;;;;13.50;12.10;;;;;;;9.12;100.00;99096.69;5055425;28;20488;-74
2024/04/01 10:39:57;;;;;;;12.13;10.90;;;;;;;9.25;100.00;99107.22;5087317;28;20507;-75
2024/04/01 10:42:25;;;;;;;12.90;11.60;;;;;;;9.44;100.00;99114.38;5058742;28;20032;-74
2024/04/01 10:45:24;;;;;;;11.30;10.10;;;;;;;9.44;100.00;99109.81;5072508;28;20352;-73
2024/04/01 10:48:01;;;;;;;12.30;11.00;;;;;;;9.58;100.00;99104.19;5071655;28;20404;-74
2024/04/01 10:50:41;;;;;;;12.05;10.85;;;;;;;9.56;100.00;99107.94;5059204;28;20115;-73
2024/04/01 10:53:29;;;;;;;11.23;10.13;;;;;;;9.52;100.00;99111.34;5072887;28;20033;-74
2024/04/01 10:56:15;;;;;;;9.73;8.82;;;;;;;9.43;100.00;99102.81;5053994;28;20115;-74
2024/04/01 10:59:01;;;;;;;9.90;8.90;;;;;;;9.50;100.00;99103.53;5072141;28;20032;-74
2024/04/01 11:02:04;;;;;;;8.98;8.07;;;;;;;9.42;100.00;99106.53;5055653;28;20040;-74
2024/04/01 11:04:32;;;;;;;8.73;7.90;;;;;;;9.36;100.00;99108.28;5071115;28;20039;-74
2024/04/01 11:06:57;;;;;;;9.68;8.68;;;;;;;9.60;100.00;99107.47;5071568;28;20151;-74
2024/04/01 11:10:10;;;;;;;10.30;9.10;;;;;;;9.60;100.00;99112.84;5071988;28;20115;-74
2024/04/01 11:12:48;;;;;;;11.20;9.82;;;;;;;9.55;100.00;99133.16;5045695;28;20032;-74
2024/04/01 11:15:19;;;;;;;11.85;10.70;;;;;;;9.61;100.00;99131.44;5038584;28;20028;-74
2024/04/01 11:17:45;;;;;;;9.50;8.50;;;;;;;9.43;100.00;99135.03;5036658;28;20036;-75
2024/04/01 11:20:26;;;;;;;8.13;7.28;;;;;;;9.19;100.00;99150.28;5036607;28;20384;-76
2024/04/01 11:23:03;;;;;;;12.00;8.70;;;;;;;9.08;100.00;99149.22;5072694;28;20112;-74
2024/04/01 11:25:57;;;;;;;8.80;7.90;;;;;;;8.98;100.00;99143.59;5071741;28;20032;-75
2024/04/01 11:28:48;;;;;;;11.73;8.35;;;;;;;9.03;100.00;99141.00;5063762;28;20032;-75
2024/04/01 11:31:17;;;;;;;8.98;7.97;;;;;;;8.99;100.00;99142.53;5054102;28;20179;-74
2024/04/01 11:34:05;;;;;;;9.80;8.30;;;;;;;9.07;100.00;99142.19;5069852;28;20029;-74
2024/04/01 11:36:33;;;;;;;9.20;8.30;;;;;;;9.24;100.00;99153.91;5055934;28;20036;-75
2024/04/01 11:39:07;;;;;;;8.48;7.68;;;;;;;9.37;100.00;99141.31;5069616;28;20032;-75
2024/04/01 11:41:33;;;;;;;8.45;7.65;;;;;;;9.68;100.00;99142.06;5072035;28;20035;-75
2024/04/01 11:43:58;;;;;;;8.88;7.97;;;;;;;9.66;100.00;99153.03;5055394;28;20619;-72
2024/04/01 11:46:24;;;;;;;8.82;7.53;;;;;;;9.67;100.00;99156.56;5037513;28;20504;-73
2024/04/01 11:48:53;;;;;;;8.52;7.72;;;;;;;9.65;100.00;99164.03;5052628;28;20043;-74
2024/04/01 11:51:30;;;;;;;9.23;8.32;;;;;;;9.81;100.00;99168.69;5053242;28;20024;-74
2024/04/01 11:53:56;;;;;;;8.93;8.02;;;;;;;9.96;100.00;99167.41;5070574;28;20028;-74
2024/04/01 11:56:35;;;;;;;7.78;7.00;;;;;;;9.99;100.00;99185.75;5036317;28;20129;-73
2024/04/01 11:59:00;;;;;;;7.68;6.93;;;;;;;9.93;100.00;99179.47;5071820;28;20103;-73
2024/04/01 12:01:34;;;;;;;7.60;6.90;;;;;;;10.20;100.00;99183.53;5053171;28;20046;-73
2024/04/01 12:03:59;;;;;;;9.25;6.95;;;;;;;10.28;100.00;99181.31;5052996;28;20051;-73
2024/04/01 12:06:27;;;;;;;8.25;7.32;;;;;;;10.23;100.00;99191.13;5070962;28;20375;-72
2024/04/01 12:08:53;;;;;;;10.18;7.85;;;;;;;10.10;100.00;99190.31;5052697;28;20025;-74
2024/04/01 12:11:19;;;;;;;8.70;7.20;;;;;;;10.14;100.00;99191.47;5070926;28;20040;-74
2024/04/01 12:13:45;;;;;;;8.93;7.50;;;;;;;10.30;100.00;99199.88;5053646;28;20059;-74
2024/04/01 12:16:11;;;;;;;8.85;6.93;;;;;;;10.42;100.00;99198.00;5036299;28;20040;-74
2024/04/01 12:18:47;;;;;;;8.65;6.60;;;;;;;10.43;100.00;99206.91;5052907;28;20098;-74
2024/04/01 12:21:12;;;;;;;7.22;6.25;;;;;;;10.16;100.00;99196.59;5052981;28;20089;-75
2024/04/01 12:23:38;;;;;;;7.07;6.30;;;;;;;10.29;100.00;99196.38;5052178;28;20038;-75
2024/04/01 12:26:10;;;;;;;6.70;6.00;;;;;;;10.41;100.00;99203.63;5070914;28;20104;-74
2024/04/01 12:28:36;;;;;;;7.57;5.85;;;;;;;10.69;100.00;99204.72;5071491;28;20021;-74
2024/04/01 12:31:04;;;;;;;7.60;6.57;;;;;;;10.58;100.00;99209.91;5070688;28;20388;-74